Time;durP1;ratioP1;P1;durP2;ratioP2;P2;SDS_P1;SDS_P2;PMS_P1;PMS_P2;Temp;Humidity;BMP_temperature;BMP_pressure;BME280_temperature;BME280_humidity;BME280_pressure;Samples;Min_cycle;Max_cycle;Signal;HPM_P1;HPM_P2
2022/01/13 00:02:07;;;;;;;7.57;7.18;;;;;;;3.32;100.00;104253.91;6251979;23;20046;-67
2022/01/13 00:04:32;;;;;;;8.48;8.07;;;;;;;3.37;100.00;104254.09;6224346;23;20008;-66
2022/01/13 00:06:58;;;;;;;6.88;6.57;;;;;;;3.43;100.00;104252.59;6251432;23;20010;-66
2022/01/13 00:09:23;;;;;;;6.97;6.68;;;;;;;3.30;100.00;104249.41;6252074;23;20011;-66
2022/01/13 00:11:50;;;;;;;7.95;7.55;;;;;;;3.44;100.00;104253.47;6251551;23;20075;-66
2022/01/13 00:17:06;;;;;;;8.02;7.50;;;;;;;3.39;100.00;104248.03;6251627;23;20437;-66
2022/01/13 00:24:59;;;;;;;6.32;6.03;;;;;;;3.39;100.00;104253.28;6261760;23;20141;-66
2022/01/13 00:27:28;;;;;;;8.35;7.93;;;;;;;3.43;100.00;104249.97;6251054;23;20004;-67
2022/01/13 00:29:55;;;;;;;8.90;8.50;;;;;;;3.45;100.00;104252.66;6252332;23;20006;-67
2022/01/13 00:32:23;;;;;;;7.25;6.85;;;;;;;3.45;100.00;104244.78;6226157;23;20042;-67
2022/01/13 00:34:49;;;;;;;8.85;8.30;;;;;;;3.40;100.00;104234.09;6253003;23;20000;-66
2022/01/13 00:37:14;;;;;;;9.20;8.60;;;;;;;3.44;100.00;104242.97;6220449;23;20051;-67
2022/01/13 00:39:39;;;;;;;8.38;7.97;;;;;;;3.55;100.00;104245.19;6222406;23;20488;-66
2022/01/13 00:42:05;;;;;;;8.00;7.60;;;;;;;3.48;100.00;104235.31;6220877;23;20032;-66
2022/01/13 00:44:35;;;;;;;8.77;8.38;;;;;;;3.42;100.00;104237.66;6246431;23;20035;-67
2022/01/13 00:47:01;;;;;;;8.93;8.52;;;;;;;3.41;100.00;104240.22;6220463;23;20015;-67
2022/01/13 00:49:27;;;;;;;8.75;8.35;;;;;;;3.49;100.00;104244.06;6222370;23;20001;-67
2022/01/13 00:51:54;;;;;;;7.63;7.22;;;;;;;3.53;100.00;104235.47;6222064;23;20415;-66
2022/01/13 00:54:19;;;;;;;9.55;9.05;;;;;;;3.53;100.00;104251.25;6223310;23;20023;-66
2022/01/13 00:56:44;;;;;;;8.35;7.95;;;;;;;3.48;100.00;104239.66;6222814;23;20005;-66
2022/01/13 00:59:14;;;;;;;7.90;7.50;;;;;;;3.53;100.00;104251.25;6222158;23;20007;-67
2022/01/13 01:01:52;;;;;;;9.20;8.70;;;;;;;3.62;100.00;104255.13;6222241;23;20445;-66
2022/01/13 01:04:18;;;;;;;10.32;9.77;;;;;;;3.52;100.00;104254.69;6222624;23;20135;-66
2022/01/13 01:06:44;;;;;;;8.68;8.27;;;;;;;3.55;100.00;104260.06;6222472;23;20001;-66
2022/01/13 01:09:15;;;;;;;8.52;8.13;;;;;;;3.65;100.00;104264.88;6221892;23;20322;-66
2022/01/13 01:11:43;;;;;;;9.90;9.43;;;;;;;3.68;100.00;104273.78;6222473;23;20047;-66
2022/01/13 01:14:08;;;;;;;9.20;8.77;;;;;;;3.62;100.00;104272.63;6222146;23;20059;-65
2022/01/13 01:16:36;;;;;;;8.48;8.07;;;;;;;3.63;100.00;104274.41;6222089;23;20000;-66
2022/01/13 01:19:07;;;;;;;9.43;8.93;;;;;;;3.73;100.00;104276.59;6222734;23;20009;-66
2022/01/13 01:26:49;;;;;;;7.40;7.07;;;;;;;3.78;100.00;104275.03;6233928;23;20013;-65
2022/01/13 01:31:53;;;;;;;6.80;6.43;;;;;;;3.88;100.00;104277.19;6233267;23;19907;-65
2022/01/13 01:34:54;;;;;;;9.00;8.60;;;;;;;3.85;100.00;104264.81;6221140;23;20001;-65
2022/01/13 01:37:20;;;;;;;9.52;9.02;;;;;;;3.65;100.00;104263.16;6220464;23;20009;-65
2022/01/13 01:39:48;;;;;;;8.85;8.45;;;;;;;3.71;100.00;104271.28;6221670;23;19997;-68
2022/01/13 01:42:15;;;;;;;10.63;9.95;;;;;;;3.70;100.00;104274.75;6222626;23;20011;-65
2022/01/13 01:44:44;;;;;;;10.07;9.60;;;;;;;3.72;100.00;104275.69;6222070;23;20016;-65
2022/01/13 01:47:20;;;;;;;9.77;9.25;;;;;;;3.70;100.00;104284.34;6222221;23;20074;-66
2022/01/13 01:49:49;;;;;;;9.15;8.60;;;;;;;3.78;100.00;104285.56;6222228;23;20080;-66
2022/01/13 01:52:16;;;;;;;9.65;8.98;;;;;;;3.82;100.00;104284.81;6222172;23;20004;-65
2022/01/13 01:54:43;;;;;;;10.60;10.10;;;;;;;3.88;100.00;104275.44;6222239;23;20004;-66
2022/01/13 01:57:08;;;;;;;8.35;7.90;;;;;;;3.84;100.00;104277.91;6221763;23;20071;-66
2022/01/13 01:59:37;;;;;;;11.05;10.35;;;;;;;3.73;100.00;104269.59;6221491;23;20024;-65
2022/01/13 02:02:04;;;;;;;8.80;8.13;;;;;;;3.96;100.00;104270.47;6222226;23;20028;-65
2022/01/13 02:04:29;;;;;;;7.57;7.18;;;;;;;3.86;100.00;104263.09;6222197;23;20518;-66
2022/01/13 02:06:56;;;;;;;10.35;9.75;;;;;;;3.76;100.00;104259.22;6221587;23;20009;-65
2022/01/13 02:09:22;;;;;;;9.85;9.25;;;;;;;3.80;100.00;104270.75;6221944;23;20004;-65
2022/01/13 02:11:53;;;;;;;8.65;8.10;;;;;;;3.73;100.00;104264.34;6222151;23;20008;-66
2022/01/13 02:16:53;;;;;;;8.02;7.63;;;;;;;3.74;100.00;104260.88;6232605;23;20070;-65
2022/01/13 02:19:19;;;;;;;9.00;8.50;;;;;;;3.90;100.00;104259.72;6222120;23;20079;-65
2022/01/13 02:21:44;;;;;;;7.47;7.07;;;;;;;4.00;100.00;104256.63;6221968;23;20000;-66
2022/01/13 02:24:11;;;;;;;8.98;8.48;;;;;;;3.99;100.00;104255.72;6221275;23;20098;-66
2022/01/13 02:26:36;;;;;;;8.73;8.30;;;;;;;3.96;100.00;104252.06;6222316;23;20012;-66
2022/01/13 02:29:02;;;;;;;10.32;9.77;;;;;;;3.90;100.00;104251.84;6222006;23;20005;-66
2022/01/13 02:31:27;;;;;;;8.40;7.90;;;;;;;3.80;100.00;104245.34;6221685;23;20043;-66
2022/01/13 02:33:54;;;;;;;7.60;7.20;;;;;;;3.97;100.00;104248.63;6222076;23;20000;-66
2022/01/13 02:36:22;;;;;;;9.23;8.73;;;;;;;3.98;100.00;104243.44;6221391;23;20068;-65
2022/01/13 02:38:53;;;;;;;7.47;7.07;;;;;;;3.87;100.00;104231.59;6251185;23;20061;-66
2022/01/13 02:41:22;;;;;;;8.10;7.70;;;;;;;3.94;100.00;104238.00;6251996;23;20062;-66
2022/01/13 02:43:48;;;;;;;8.98;8.48;;;;;;;3.85;100.00;104224.47;6252097;23;20330;-66
2022/01/13 02:49:09;;;;;;;8.88;8.35;;;;;;;3.81;100.00;104223.47;6262650;23;20073;-65
2022/01/13 02:51:35;;;;;;;6.88;6.53;;;;;;;4.02;100.00;104232.16;6251458;23;20004;-66
2022/01/13 02:54:02;;;;;;;6.15;5.85;;;;;;;3.92;100.00;104229.16;6251968;23;20042;-66
2022/01/13 02:56:27;;;;;;;7.45;7.05;;;;;;;3.78;100.00;104225.97;6251959;23;20004;-66
2022/01/13 02:58:53;;;;;;;5.40;5.10;;;;;;;4.04;100.00;104226.97;6250971;23;20015;-66
2022/01/13 03:01:19;;;;;;;8.70;8.15;;;;;;;3.82;100.00;104224.34;6251633;23;20046;-65
2022/01/13 03:03:45;;;;;;;7.72;7.22;;;;;;;3.90;100.00;104222.94;6251632;23;20008;-65
2022/01/13 03:06:16;;;;;;;5.90;5.60;;;;;;;3.96;100.00;104223.16;6251724;23;20322;-67
2022/01/13 03:08:46;;;;;;;9.55;9.15;;;;;;;3.81;100.00;104220.84;6251825;23;20008;-66
2022/01/13 03:11:12;;;;;;;10.13;9.52;;;;;;;3.82;100.00;104220.00;6252646;23;20004;-66
2022/01/13 03:13:38;;;;;;;6.88;6.47;;;;;;;3.84;100.00;104223.59;6251570;23;20011;-66
2022/01/13 03:16:09;;;;;;;6.32;6.03;;;;;;;3.89;100.00;104222.00;6224843;23;20039;-66
2022/01/13 03:18:35;;;;;;;7.95;7.55;;;;;;;3.80;100.00;104221.66;6224884;23;20416;-66
2022/01/13 03:21:01;;;;;;;9.25;8.48;;;;;;;3.76;100.00;104219.78;6251147;23;20058;-66
2022/01/13 03:23:26;;;;;;;7.35;6.97;;;;;;;3.87;100.00;104210.56;6251563;23;20337;-66
2022/01/13 03:25:53;;;;;;;6.82;6.45;;;;;;;3.81;100.00;104214.69;6251361;23;20075;-66
2022/01/13 03:28:28;;;;;;;6.82;6.32;;;;;;;3.72;100.00;104209.97;6251686;23;20004;-66
2022/01/13 03:30:55;;;;;;;7.60;7.18;;;;;;;3.82;100.00;104213.84;6252433;23;20011;-66
2022/01/13 03:33:20;;;;;;;6.30;6.00;;;;;;;3.78;100.00;104210.19;6252523;23;20118;-66
2022/01/13 03:35:46;;;;;;;7.22;6.82;;;;;;;3.84;100.00;104201.66;6251376;23;20000;-66
2022/01/13 03:38:11;;;;;;;9.07;8.57;;;;;;;3.83;100.00;104205.13;6251409;23;20012;-66
2022/01/13 03:40:37;;;;;;;7.97;7.53;;;;;;;3.89;100.00;104202.75;6251362;23;20004;-66
2022/01/13 03:43:04;;;;;;;6.93;6.57;;;;;;;3.94;100.00;104203.81;6251098;23;20291;-67
2022/01/13 03:45:30;;;;;;;9.15;8.63;;;;;;;3.93;100.00;104204.63;6251717;23;20004;-66
2022/01/13 03:47:56;;;;;;;6.57;6.18;;;;;;;3.88;100.00;104198.28;6251992;23;20011;-66
2022/01/13 03:50:21;;;;;;;7.13;6.72;;;;;;;3.85;100.00;104198.19;6251136;23;20004;-66
2022/01/13 03:53:06;;;;;;;8.23;7.82;;;;;;;3.98;100.00;104201.34;6250501;23;20069;-66
2022/01/13 03:55:35;;;;;;;7.97;7.55;;;;;;;3.89;100.00;104200.09;6250934;23;20008;-67
2022/01/13 03:58:25;;;;;;;6.47;6.07;;;;;;;3.94;100.00;104209.06;6250975;23;20441;-66
2022/01/13 04:01:32;;;;;;;9.63;9.13;;;;;;;3.96;100.00;104203.03;6250695;23;20000;-66
2022/01/13 04:03:58;;;;;;;9.68;8.77;;;;;;;3.91;100.00;104204.56;6252065;23;20000;-66
2022/01/13 04:06:23;;;;;;;7.80;7.40;;;;;;;3.90;100.00;104202.78;6251367;23;20061;-66
2022/01/13 04:08:49;;;;;;;6.35;6.05;;;;;;;4.06;100.00;104204.25;6250762;23;20016;-66
2022/01/13 04:11:32;;;;;;;8.00;7.60;;;;;;;4.01;100.00;104206.72;6251030;23;20417;-66
2022/01/13 04:14:02;;;;;;;7.03;6.68;;;;;;;4.04;100.00;104208.56;6251544;23;20004;-66
2022/01/13 04:16:31;;;;;;;7.43;7.03;;;;;;;4.06;100.00;104215.69;6250664;23;20035;-65
2022/01/13 04:19:02;;;;;;;7.32;6.93;;;;;;;3.92;100.00;104208.09;6250564;23;20030;-66
2022/01/13 04:21:28;;;;;;;8.23;7.82;;;;;;;4.04;100.00;104206.84;6251824;23;20005;-66
2022/01/13 04:23:56;;;;;;;8.38;7.97;;;;;;;4.06;100.00;104212.16;6224599;23;20295;-66
2022/01/13 04:26:27;;;;;;;8.35;7.88;;;;;;;3.90;100.00;104213.31;6251537;23;20035;-66
2022/01/13 04:29:02;;;;;;;8.38;7.80;;;;;;;4.01;100.00;104209.34;6251838;23;20004;-66
2022/01/13 04:31:28;;;;;;;7.72;7.32;;;;;;;4.07;100.00;104212.22;6224293;23;20008;-66
2022/01/13 04:33:53;;;;;;;7.40;6.90;;;;;;;4.10;100.00;104217.56;6251501;23;20003;-67
2022/01/13 04:36:18;;;;;;;8.10;7.68;;;;;;;4.01;100.00;104211.06;6251127;23;20044;-66
2022/01/13 04:38:43;;;;;;;7.88;7.47;;;;;;;4.10;100.00;104216.66;6251796;23;20012;-65
2022/01/13 04:41:09;;;;;;;7.53;7.13;;;;;;;4.02;100.00;104212.84;6224607;23;20004;-66
2022/01/13 04:43:34;;;;;;;10.30;9.52;;;;;;;4.10;100.00;104211.41;6251362;23;20004;-65
2022/01/13 04:46:00;;;;;;;6.22;5.93;;;;;;;3.96;100.00;104213.53;6251040;23;20130;-66
2022/01/13 04:48:26;;;;;;;8.18;7.72;;;;;;;4.01;100.00;104217.25;6251204;23;20031;-66
2022/01/13 04:50:51;;;;;;;6.13;5.72;;;;;;;4.05;100.00;104220.88;6250852;23;20050;-65
2022/01/13 04:53:17;;;;;;;7.22;6.80;;;;;;;3.99;100.00;104218.91;6251253;23;20031;-67
2022/01/13 04:55:57;;;;;;;8.43;7.93;;;;;;;3.98;100.00;104221.47;6250435;23;20042;-66
2022/01/13 04:58:23;;;;;;;8.88;8.40;;;;;;;4.02;100.00;104213.75;6251227;23;20028;-66
2022/01/13 05:00:48;;;;;;;9.75;9.15;;;;;;;3.97;100.00;104211.81;6250476;23;20007;-66
2022/01/13 05:03:13;;;;;;;7.35;6.95;;;;;;;3.99;100.00;104203.13;6251065;23;20000;-66
2022/01/13 05:05:39;;;;;;;7.07;6.78;;;;;;;3.89;100.00;104200.09;6250536;23;20421;-66
2022/01/13 05:08:04;;;;;;;8.00;7.57;;;;;;;3.97;100.00;104201.28;6251264;23;20020;-65
2022/01/13 05:10:30;;;;;;;7.95;7.38;;;;;;;3.95;100.00;104202.97;6224286;23;20083;-66
2022/01/13 05:12:57;;;;;;;8.02;7.63;;;;;;;3.91;100.00;104206.28;6250613;23;20087;-66
2022/01/13 05:15:27;;;;;;;6.78;6.40;;;;;;;3.79;100.00;104212.00;6252036;23;20004;-66
2022/01/13 05:20:28;;;;;;;7.28;6.60;;;;;;;3.78;100.00;104207.56;6253006;23;20326;-65
2022/01/13 05:22:54;;;;;;;6.57;6.28;;;;;;;3.87;100.00;104207.03;6252631;23;20000;-65
2022/01/13 05:25:21;;;;;;;6.65;6.35;;;;;;;3.88;100.00;104214.06;6226043;23;20004;-65
2022/01/13 05:27:47;;;;;;;6.88;6.53;;;;;;;3.86;100.00;104215.78;6250934;23;20050;-65
2022/01/13 05:30:15;;;;;;;8.13;7.57;;;;;;;3.96;100.00;104217.91;6226339;23;20004;-65
2022/01/13 05:32:41;;;;;;;8.73;8.23;;;;;;;3.90;100.00;104217.66;6252396;23;20079;-65
2022/01/13 05:35:07;;;;;;;7.43;7.03;;;;;;;3.85;100.00;104217.50;6252422;23;20106;-66
2022/01/13 05:37:33;;;;;;;8.38;7.88;;;;;;;3.84;100.00;104222.69;6252264;23;20016;-66
2022/01/13 05:39:59;;;;;;;10.05;9.50;;;;;;;3.86;100.00;104216.66;6253347;23;20058;-66
2022/01/13 05:42:24;;;;;;;7.13;6.78;;;;;;;3.91;100.00;104211.56;6252957;23;20000;-66
2022/01/13 05:44:50;;;;;;;9.25;8.75;;;;;;;3.92;100.00;104210.75;6252484;23;20004;-66
2022/01/13 05:47:15;;;;;;;8.38;7.95;;;;;;;3.91;100.00;104209.84;6253068;23;20008;-69
2022/01/13 05:49:42;;;;;;;7.07;6.68;;;;;;;3.80;100.00;104205.91;6248415;23;20038;-67
2022/01/13 05:52:11;;;;;;;7.75;7.35;;;;;;;3.85;100.00;104204.34;6222069;23;20008;-70
2022/01/13 05:54:37;;;;;;;8.93;8.50;;;;;;;3.92;100.00;104197.59;6248707;23;20038;-68
2022/01/13 05:57:03;;;;;;;7.53;7.13;;;;;;;3.82;100.00;104212.13;6248564;23;20000;-66
2022/01/13 05:59:29;;;;;;;7.20;6.85;;;;;;;3.89;100.00;104211.50;6248611;23;20004;-65
2022/01/13 06:01:54;;;;;;;8.93;8.43;;;;;;;3.89;100.00;104205.38;6250536;23;20010;-67
2022/01/13 06:04:20;;;;;;;8.23;7.80;;;;;;;3.85;100.00;104216.59;6250236;23;20001;-66
2022/01/13 06:06:45;;;;;;;7.78;7.38;;;;;;;3.91;100.00;104208.94;6248392;23;20362;-66
2022/01/13 06:09:10;;;;;;;9.32;8.63;;;;;;;3.98;100.00;104211.88;6250129;23;20083;-68
2022/01/13 06:11:42;;;;;;;9.90;9.40;;;;;;;3.97;100.00;104214.44;6223636;23;20004;-67
2022/01/13 06:14:08;;;;;;;9.88;9.30;;;;;;;3.94;100.00;104209.06;6252594;23;20089;-69
2022/01/13 06:16:33;;;;;;;11.63;10.93;;;;;;;3.92;100.00;104216.91;6252586;23;20000;-67
2022/01/13 06:18:59;;;;;;;9.38;8.90;;;;;;;3.89;100.00;104214.13;6250826;23;20008;-66
2022/01/13 06:21:25;;;;;;;7.75;7.35;;;;;;;4.05;100.00;104223.53;6251682;23;20008;-66
2022/01/13 06:23:50;;;;;;;7.97;7.57;;;;;;;3.88;100.00;104209.72;6250514;23;20004;-68
2022/01/13 06:26:15;;;;;;;9.40;8.80;;;;;;;3.92;100.00;104211.66;6248823;23;20008;-65
2022/01/13 06:28:41;;;;;;;7.65;7.20;;;;;;;3.89;100.00;104206.25;6248865;23;20058;-67
2022/01/13 06:31:06;;;;;;;8.20;7.75;;;;;;;3.93;100.00;104213.44;6247948;23;20004;-69
2022/01/13 06:33:32;;;;;;;10.80;10.25;;;;;;;3.88;100.00;104206.19;6223250;23;20058;-66
2022/01/13 06:35:57;;;;;;;6.88;6.40;;;;;;;4.01;100.00;104211.06;6223406;23;20007;-68
2022/01/13 06:38:24;;;;;;;9.88;9.20;;;;;;;4.08;100.00;104211.34;6219544;23;20088;-68
2022/01/13 06:40:50;;;;;;;6.70;6.40;;;;;;;3.97;100.00;104209.19;6221039;23;20008;-67
2022/01/13 06:43:16;;;;;;;7.63;7.22;;;;;;;4.04;100.00;104216.44;6221268;23;20008;-68
2022/01/13 06:45:41;;;;;;;7.72;7.32;;;;;;;4.03;100.00;104206.78;6219793;23;20005;-67
2022/01/13 06:48:08;;;;;;;7.68;7.28;;;;;;;4.14;100.00;104218.59;6219732;23;20012;-67
2022/01/13 06:50:38;;;;;;;7.95;7.43;;;;;;;4.16;100.00;104220.44;6219819;23;20001;-68
2022/01/13 06:53:04;;;;;;;6.90;6.55;;;;;;;4.03;100.00;104219.94;6220290;23;20047;-68
2022/01/13 06:55:29;;;;;;;7.85;7.35;;;;;;;4.11;100.00;104216.72;6220428;23;20009;-68
2022/01/13 06:57:55;;;;;;;6.32;5.97;;;;;;;4.14;100.00;104213.34;6220119;23;20004;-67
2022/01/13 07:00:22;;;;;;;7.75;7.32;;;;;;;4.12;100.00;104221.19;6218866;23;20082;-67
2022/01/13 07:02:47;;;;;;;6.80;6.43;;;;;;;4.16;100.00;104216.94;6219324;23;20001;-66
2022/01/13 07:05:13;;;;;;;7.57;7.18;;;;;;;4.15;100.00;104216.03;6219464;23;20449;-66
2022/01/13 07:07:40;;;;;;;7.75;7.35;;;;;;;4.27;100.00;104220.84;6219676;23;20004;-66
2022/01/13 07:10:08;;;;;;;7.45;7.05;;;;;;;4.25;100.00;104223.44;6219627;23;20051;-68
2022/01/13 07:12:34;;;;;;;8.05;7.40;;;;;;;4.20;100.00;104219.72;6219580;23;20488;-67
2022/01/13 07:14:59;;;;;;;6.72;6.22;;;;;;;4.37;100.00;104223.88;6218995;23;20091;-67
2022/01/13 07:17:25;;;;;;;6.85;6.20;;;;;;;4.40;100.00;104223.97;6219463;23;20005;-67
2022/01/13 07:19:51;;;;;;;7.10;6.70;;;;;;;4.19;100.00;104217.03;6218269;23;20016;-67
2022/01/13 07:22:18;;;;;;;5.13;4.82;;;;;;;4.32;100.00;104228.06;6220862;23;20031;-68
2022/01/13 07:24:43;;;;;;;5.80;5.50;;;;;;;4.21;100.00;104224.13;6221890;23;20411;-67
2022/01/13 07:27:09;;;;;;;5.40;5.10;;;;;;;4.29;100.00;104227.94;6243045;23;20038;-67
2022/01/13 07:29:34;;;;;;;6.95;6.45;;;;;;;4.32;100.00;104221.88;6217701;23;20001;-67
2022/01/13 07:32:00;;;;;;;6.15;5.85;;;;;;;4.24;100.00;104220.72;6218734;23;20058;-66
2022/01/13 07:34:25;;;;;;;6.28;5.85;;;;;;;4.27;100.00;104229.63;6216066;23;20001;-67
2022/01/13 07:36:51;;;;;;;5.18;4.82;;;;;;;4.24;100.00;104233.88;6223133;23;20012;-67
2022/01/13 07:39:16;;;;;;;8.55;6.20;;;;;;;4.29;100.00;104227.03;6249016;23;20023;-67
2022/01/13 07:41:42;;;;;;;6.88;6.47;;;;;;;4.28;100.00;104225.25;6222456;23;20024;-68
2022/01/13 07:44:08;;;;;;;6.22;5.82;;;;;;;4.32;100.00;104235.03;6249434;23;20485;-67
2022/01/13 07:46:33;;;;;;;6.00;5.65;;;;;;;4.26;100.00;104229.56;6249924;23;20043;-66
2022/01/13 07:48:58;;;;;;;9.43;6.45;;;;;;;4.29;100.00;104237.56;6248268;23;20015;-65
2022/01/13 07:51:24;;;;;;;5.55;5.25;;;;;;;4.33;100.00;104242.13;6246867;23;20004;-66
2022/01/13 07:53:49;;;;;;;7.90;7.40;;;;;;;4.36;100.00;104234.34;6246792;23;20008;-66
2022/01/13 07:56:14;;;;;;;5.18;4.88;;;;;;;4.32;100.00;104241.22;6245047;23;20004;-67
2022/01/13 07:58:41;;;;;;;6.40;5.90;;;;;;;4.35;100.00;104243.97;6248255;23;20014;-66
2022/01/13 08:01:07;;;;;;;7.50;6.43;;;;;;;4.27;100.00;104242.78;6249492;23;20004;-66
2022/01/13 08:03:32;;;;;;;5.43;5.10;;;;;;;4.32;100.00;104245.56;6247027;23;20397;-65
2022/01/13 08:05:58;;;;;;;5.03;4.72;;;;;;;4.37;100.00;104244.00;6248250;23;20004;-65
2022/01/13 08:08:24;;;;;;;5.63;5.32;;;;;;;4.41;100.00;104238.91;6249378;23;20015;-67
2022/01/13 08:10:50;;;;;;;4.95;4.65;;;;;;;4.35;100.00;104236.06;6221067;23;20000;-66
2022/01/13 08:13:15;;;;;;;4.32;4.10;;;;;;;4.49;100.00;104245.34;6249028;23;20007;-67
2022/01/13 08:15:40;;;;;;;4.03;3.83;;;;;;;4.44;100.00;104240.78;6249097;23;20008;-69
2022/01/13 08:20:50;;;;;;;6.22;5.82;;;;;;;4.43;100.00;104245.13;6248741;23;20023;-67
2022/01/13 08:23:15;;;;;;;4.65;4.35;;;;;;;4.35;100.00;104245.69;6249474;23;20000;-66
2022/01/13 08:25:40;;;;;;;4.18;3.97;;;;;;;4.48;100.00;104242.66;6251826;23;20008;-66
2022/01/13 08:28:06;;;;;;;5.00;4.70;;;;;;;4.44;100.00;104246.91;6249354;23;20004;-66
2022/01/13 08:30:33;;;;;;;4.20;4.00;;;;;;;4.43;100.00;104244.22;6251046;23;20008;-69
2022/01/13 08:32:58;;;;;;;5.03;4.72;;;;;;;4.35;100.00;104240.41;6251754;23;20081;-66
2022/01/13 08:35:23;;;;;;;4.00;3.80;;;;;;;4.42;100.00;104247.72;6251410;23;20466;-67
2022/01/13 08:37:49;;;;;;;4.00;3.80;;;;;;;4.43;100.00;104249.50;6214386;23;20008;-70
2022/01/13 08:40:14;;;;;;;4.07;3.88;;;;;;;4.37;100.00;104254.53;6217245;23;20005;-69
2022/01/13 08:42:40;;;;;;;4.50;4.22;;;;;;;4.53;100.00;104257.81;6214729;23;20055;-66
2022/01/13 08:45:08;;;;;;;3.25;3.05;;;;;;;4.40;100.00;104266.06;6222063;23;20061;-70
2022/01/13 08:47:34;;;;;;;2.97;2.83;;;;;;;4.52;100.00;104265.63;6212833;23;20016;-70
2022/01/13 08:49:59;;;;;;;4.45;4.15;;;;;;;4.46;100.00;104275.91;6219667;23;20008;-66
2022/01/13 08:52:25;;;;;;;3.67;3.47;;;;;;;4.50;100.00;104273.47;6216249;23;20008;-66
2022/01/13 08:54:52;;;;;;;3.58;3.38;;;;;;;4.60;100.00;104280.84;6219986;23;20123;-72
2022/01/13 08:57:17;;;;;;;3.65;3.45;;;;;;;4.57;100.00;104279.84;6217205;23;20008;-66
2022/01/13 08:59:43;;;;;;;3.50;3.30;;;;;;;4.65;100.00;104283.66;6221868;23;20008;-66
2022/01/13 09:02:09;;;;;;;4.40;4.10;;;;;;;4.63;100.00;104277.47;6221691;23;20291;-66
2022/01/13 09:04:34;;;;;;;3.35;3.15;;;;;;;4.64;100.00;104279.22;6219752;23;20452;-66
2022/01/13 09:07:00;;;;;;;4.43;4.13;;;;;;;4.77;100.00;104273.56;6224955;23;20008;-67
2022/01/13 09:09:25;;;;;;;4.25;3.85;;;;;;;4.54;100.00;104279.72;6222450;23;20032;-70
2022/01/13 09:11:50;;;;;;;4.30;4.07;;;;;;;4.56;100.00;104272.78;6222661;23;20060;-68
2022/01/13 09:14:17;;;;;;;3.33;3.17;;;;;;;4.73;100.00;104282.19;6220849;23;20059;-66
2022/01/13 09:16:46;;;;;;;3.03;2.83;;;;;;;4.59;100.00;104271.19;6222355;23;20001;-68
2022/01/13 09:19:13;;;;;;;3.67;3.47;;;;;;;4.69;100.00;104275.03;6223949;23;20461;-72
2022/01/13 09:21:43;;;;;;;3.40;3.20;;;;;;;4.74;100.00;104271.72;6221679;23;20015;-67
2022/01/13 09:24:10;;;;;;;;;;;;;;;4.70;100.00;104267.19;6220463;23;20063;-66
2022/01/13 09:26:36;;;;;;;3.55;3.35;;;;;;;4.57;100.00;104270.22;6219872;23;19908;-68
2022/01/13 09:29:03;;;;;;;4.20;4.00;;;;;;;4.52;100.00;104270.91;6222277;23;20001;-68
2022/01/13 09:31:29;;;;;;;4.20;4.00;;;;;;;4.64;100.00;104271.34;6220840;23;20000;-67
2022/01/13 09:33:55;;;;;;;4.70;4.40;;;;;;;4.72;100.00;104268.16;6216486;23;20008;-67
2022/01/13 09:36:20;;;;;;;4.05;3.80;;;;;;;4.79;100.00;104263.97;6216535;23;20079;-69
2022/01/13 09:38:46;;;;;;;6.25;5.82;;;;;;;4.76;100.00;104261.22;6246114;23;20371;-68
2022/01/13 09:41:12;;;;;;;5.00;4.70;;;;;;;4.82;100.00;104253.56;6246089;23;20321;-68
2022/01/13 09:43:42;;;;;;;5.28;4.97;;;;;;;4.92;100.00;104260.94;6246787;23;20000;-68
2022/01/13 09:46:07;;;;;;;5.97;5.68;;;;;;;4.83;100.00;104262.34;6246325;23;20015;-67
2022/01/13 09:48:33;;;;;;;4.95;4.65;;;;;;;4.95;100.00;104268.94;6246181;23;20004;-69
2022/01/13 09:50:58;;;;;;;5.60;5.20;;;;;;;5.14;100.00;104265.22;6219226;23;20427;-67
2022/01/13 09:53:23;;;;;;;5.45;5.05;;;;;;;5.27;100.00;104265.66;6246220;23;20441;-68
2022/01/13 09:55:49;;;;;;;5.15;4.85;;;;;;;5.21;100.00;104269.84;6246124;23;20026;-66
2022/01/13 09:58:15;;;;;;;4.78;4.47;;;;;;;5.17;100.00;104266.19;6245897;23;20130;-66
2022/01/13 10:00:42;;;;;;;4.05;3.80;;;;;;;5.13;100.00;104264.31;6246982;23;20070;-68
2022/01/13 10:03:27;;;;;;;4.20;4.00;;;;;;;5.19;100.00;104255.72;6246098;23;20337;-66
2022/01/13 10:05:55;;;;;;;3.88;3.67;;;;;;;5.28;100.00;104262.19;6246793;23;20011;-67
2022/01/13 10:08:42;;;;;;;4.25;4.05;;;;;;;5.38;100.00;104252.84;6246949;23;20427;-66
2022/01/13 10:11:40;;;;;;;4.43;4.18;;;;;;;5.39;100.00;104257.28;6246376;23;20005;-68
2022/01/13 10:16:46;;;;;;;4.45;4.15;;;;;;;5.47;100.00;104254.03;6246846;23;20035;-67
2022/01/13 10:19:26;;;;;;;6.10;5.70;;;;;;;5.49;100.00;104246.16;6246982;23;20329;-67
2022/01/13 10:21:57;;;;;;;;;;;;;;;5.44;100.00;104250.41;6246835;23;20246;-67
2022/01/13 10:24:28;;;;;;;4.35;4.10;;;;;;;5.64;100.00;104249.31;6220048;23;19957;-68
2022/01/13 10:27:05;;;;;;;6.25;5.85;;;;;;;5.54;100.00;104245.50;6246346;23;20004;-67
2022/01/13 10:29:41;;;;;;;4.88;4.63;;;;;;;5.65;100.00;104237.91;6244096;23;20012;-67
2022/01/13 10:32:09;;;;;;;4.03;3.72;;;;;;;5.55;100.00;104235.81;6220777;23;20012;-67
2022/01/13 10:34:37;;;;;;;6.53;6.03;;;;;;;5.64;100.00;104242.28;6220804;23;20012;-67
2022/01/13 10:37:13;;;;;;;5.15;4.72;;;;;;;5.55;100.00;104235.81;6247136;23;20012;-66
2022/01/13 10:39:44;;;;;;;4.70;4.35;;;;;;;5.65;100.00;104232.63;6248055;23;20035;-69
2022/01/13 10:44:59;;;;;;;3.35;3.15;;;;;;;5.61;100.00;104223.72;6205975;23;20015;-66
2022/01/13 10:47:27;;;;;;;6.28;4.28;;;;;;;5.48;100.00;104223.31;6220060;23;20008;-66
2022/01/13 10:49:53;;;;;;;5.35;4.95;;;;;;;5.49;100.00;104226.00;6246873;23;20004;-67
2022/01/13 10:52:26;;;;;;;3.35;3.10;;;;;;;5.38;100.00;104210.66;6220498;23;20138;-68
2022/01/13 10:54:54;;;;;;;4.43;4.13;;;;;;;5.47;100.00;104213.59;6246787;23;20406;-67
2022/01/13 10:57:23;;;;;;;4.90;4.50;;;;;;;5.56;100.00;104211.25;6247605;23;20091;-69
2022/01/13 10:59:49;;;;;;;4.38;3.60;;;;;;;5.61;100.00;104210.53;6247800;23;20004;-68
2022/01/13 11:02:14;;;;;;;5.38;4.70;;;;;;;5.63;100.00;104205.31;6220273;23;20477;-67
2022/01/13 11:04:40;;;;;;;6.32;5.82;;;;;;;5.84;100.00;104201.66;6245713;23;20007;-68
2022/01/13 11:07:34;;;;;;;5.05;4.75;;;;;;;5.76;100.00;104192.56;6219760;23;20426;-66
2022/01/13 11:10:03;;;;;;;6.57;6.07;;;;;;;5.92;100.00;104192.22;6218943;23;20064;-67
2022/01/13 11:12:32;;;;;;;6.20;5.88;;;;;;;5.90;100.00;104196.56;6219425;23;20011;-67
2022/01/13 11:15:03;;;;;;;5.88;5.38;;;;;;;5.62;100.00;104193.00;6246520;23;19996;-66
2022/01/13 11:17:29;;;;;;;5.95;5.55;;;;;;;5.89;100.00;104189.47;6247864;23;20063;-66
2022/01/13 11:19:57;;;;;;;7.80;7.18;;;;;;;5.96;100.00;104174.72;6247634;23;20012;-67
2022/01/13 11:22:23;;;;;;;5.50;5.00;;;;;;;5.92;100.00;104172.84;6247874;23;20091;-66
2022/01/13 11:24:49;;;;;;;6.32;5.80;;;;;;;5.96;100.00;104178.25;6246778;23;20003;-67
2022/01/13 11:27:17;;;;;;;6.10;5.70;;;;;;;5.96;100.00;104165.06;6247477;23;20008;-66
2022/01/13 11:29:45;;;;;;;5.10;4.68;;;;;;;5.98;100.00;104170.38;6247564;23;20004;-65
2022/01/13 11:32:11;;;;;;;5.25;4.85;;;;;;;5.88;100.00;104163.94;6220362;23;20015;-66
2022/01/13 11:34:38;;;;;;;11.10;5.07;;;;;;;5.81;100.00;104159.31;6247486;23;20008;-66
2022/01/13 11:37:04;;;;;;;16.42;5.15;;;;;;;6.07;100.00;104152.16;6246980;23;20081;-66
2022/01/13 11:39:36;;;;;;;6.13;3.78;;;;;;;5.91;100.00;104152.56;6247226;23;20004;-66
2022/01/13 11:42:03;;;;;;;4.13;3.80;;;;;;;6.10;100.00;104163.72;6247203;23;20014;-67
2022/01/13 11:44:29;;;;;;;4.80;4.50;;;;;;;5.94;100.00;104156.19;6247017;23;20000;-66
2022/01/13 11:46:54;;;;;;;5.35;4.80;;;;;;;5.88;100.00;104161.31;6246619;23;20007;-66
2022/01/13 11:49:32;;;;;;;5.40;3.55;;;;;;;5.92;100.00;104147.38;6219938;23;20000;-67
2022/01/13 11:52:01;;;;;;;4.38;4.00;;;;;;;5.64;100.00;104133.28;6246542;23;20057;-68
2022/01/13 11:54:35;;;;;;;4.80;4.47;;;;;;;5.73;100.00;104126.56;6247451;23;20050;-67
2022/01/13 11:57:17;;;;;;;6.15;5.15;;;;;;;5.66;100.00;104131.56;6246510;23;20039;-67
2022/01/13 11:59:55;;;;;;;5.93;5.18;;;;;;;5.92;100.00;104126.28;6246544;23;20007;-68